Boswell, Oklahoma
Current Conditions -  °F | °C
As of 12:35 AM on Wednesday 28 Jan 2015 (Local Time) from KHHW Reporting Station
Clear Clear  
Wind Chill: 55°   Ceiling: Unl
Heat Index: 55°   Visibility: 10mi
Dew Point: 36°   Wind: 7mph
Humidity: 49%   Direction: 170°S
Pressure: 30.1"   Gusts: NA
Location:  34.03°N, 95.87°W
Report Text: KHHW 280635Z AUTO 17006KT 10SM CLR 13/02 A3010 RMK AO2 T01290024
Loading
Personal Weather Stations






























Interactive Weather Map New forecast layout! Learn more

10-Day Weather Forecast

Advertisements
Track Severe Weather on mobile